Time;durP1;ratioP1;P1;durP2;ratioP2;P2;SDS_P1;SDS_P2;PMS_P1;PMS_P2;Temp;Humidity;BMP_temperature;BMP_pressure;BME280_temperature;BME280_humidity;BME280_pressure;Samples;Min_cycle;Max_cycle;Signal;HPM_P1;HPM_P2
2022/10/17 00:00:17;;;;;;;;;;;13.20;99.90;;;;;;4948951;28;19934;-56
2022/10/17 00:02:44;;;;;;;;;;;13.20;99.90;;;;;;4949279;28;19930;-56
2022/10/17 00:05:11;;;;;;;;;;;13.20;99.90;;;;;;4949228;28;19930;-56
2022/10/17 00:07:37;;;;;;;;;;;13.20;99.90;;;;;;4950616;28;19930;-56
2022/10/17 00:10:04;;;;;;;;;;;13.10;99.90;;;;;;4949536;28;19934;-56
2022/10/17 00:12:33;;;;;;;;;;;13.20;99.90;;;;;;4949054;28;19937;-56
2022/10/17 00:14:59;;;;;;;;;;;13.20;99.90;;;;;;4949335;28;19937;-56
2022/10/17 00:17:26;;;;;;;;;;;13.20;99.90;;;;;;4948757;28;19937;-56
2022/10/17 00:19:53;;;;;;;;;;;13.10;99.90;;;;;;4948795;28;19934;-56
2022/10/17 00:22:19;;;;;;;;;;;13.10;99.90;;;;;;4949529;28;19930;-56
2022/10/17 00:24:46;;;;;;;;;;;13.00;99.90;;;;;;4949534;28;22128;-56
2022/10/17 00:27:12;;;;;;;;;;;13.00;99.90;;;;;;4950489;28;20020;-56
2022/10/17 00:29:40;;;;;;;;;;;13.00;99.90;;;;;;4948423;28;21827;-56
2022/10/17 00:32:07;;;;;;;;;;;12.90;99.90;;;;;;4947527;28;20394;-56
2022/10/17 00:34:34;;;;;;;;;;;12.90;99.90;;;;;;4947760;28;19942;-57
2022/10/17 00:37:00;;;;;;;;;;;12.90;99.90;;;;;;4949634;28;19930;-56
2022/10/17 00:39:27;;;;;;;;;;;12.80;99.90;;;;;;4949046;28;19935;-56
2022/10/17 00:41:54;;;;;;;;;;;12.90;99.90;;;;;;4948857;28;19930;-56
2022/10/17 00:44:39;;;;;;;;;;;12.90;99.90;;;;;;4948918;28;19931;-56
2022/10/17 00:47:09;;;;;;;;;;;12.90;99.90;;;;;;4950618;28;22161;-56
2022/10/17 00:49:36;;;;;;;;;;;12.90;99.90;;;;;;4948582;28;19982;-56
2022/10/17 00:52:06;;;;;;;;;;;12.90;99.90;;;;;;4948969;28;19932;-56
2022/10/17 00:54:33;;;;;;;;;;;13.00;99.90;;;;;;4948200;28;19930;-56
2022/10/17 00:57:01;;;;;;;;;;;12.90;99.90;;;;;;4949071;28;19930;-56
2022/10/17 00:59:29;;;;;;;;;;;12.90;99.90;;;;;;4949131;28;19935;-56
2022/10/17 01:01:59;;;;;;;;;;;12.90;99.90;;;;;;4946110;28;19973;-56
2022/10/17 01:04:27;;;;;;;;;;;12.90;99.90;;;;;;4945230;28;19931;-56
2022/10/17 01:06:54;;;;;;;;;;;12.90;99.90;;;;;;4948387;28;20667;-56
2022/10/17 01:09:20;;;;;;;;;;;12.90;99.90;;;;;;4947806;28;19941;-56
2022/10/17 01:11:50;;;;;;;;;;;12.90;99.90;;;;;;4946905;28;19937;-56
2022/10/17 01:14:22;;;;;;;;;;;13.00;99.90;;;;;;4947102;28;19931;-56
2022/10/17 01:16:53;;;;;;;;;;;13.00;99.90;;;;;;4947910;28;19930;-56
2022/10/17 01:19:34;;;;;;;;;;;13.10;99.90;;;;;;4948369;28;19942;-56
2022/10/17 01:22:07;;;;;;;;;;;13.10;99.90;;;;;;4946468;28;19937;-56
2022/10/17 01:24:42;;;;;;;;;;;13.10;99.90;;;;;;4947917;28;19934;-56
2022/10/17 01:27:19;;;;;;;;;;;13.10;99.90;;;;;;4947772;28;19931;-56
2022/10/17 01:30:01;;;;;;;;;;;13.10;99.90;;;;;;4947918;28;19934;-56
2022/10/17 01:32:32;;;;;;;;;;;13.10;99.90;;;;;;4916326;28;19931;-56
2022/10/17 01:35:01;;;;;;;;;;;13.10;99.90;;;;;;4946695;28;19938;-56
2022/10/17 01:37:30;;;;;;;;;;;13.20;99.90;;;;;;4947534;28;20396;-56
2022/10/17 01:40:01;;;;;;;;;;;13.20;99.90;;;;;;4947006;28;19934;-56
2022/10/17 01:42:31;;;;;;;;;;;13.20;99.90;;;;;;4947407;28;19930;-56
2022/10/17 01:44:59;;;;;;;;;;;13.30;99.90;;;;;;4946970;28;20407;-56
2022/10/17 01:47:27;;;;;;;;;;;13.30;99.90;;;;;;4947156;28;19930;-56
2022/10/17 01:49:57;;;;;;;;;;;13.30;99.90;;;;;;4946565;28;19983;-56
2022/10/17 01:52:25;;;;;;;;;;;13.30;99.90;;;;;;4946476;28;19930;-56
2022/10/17 01:54:53;;;;;;;;;;;13.30;99.90;;;;;;4946425;28;19930;-56
2022/10/17 01:57:22;;;;;;;;;;;13.40;99.90;;;;;;4947705;28;19937;-56
2022/10/17 01:59:52;;;;;;;;;;;13.40;99.90;;;;;;4947919;28;19941;-56
2022/10/17 02:02:19;;;;;;;;;;;13.40;99.90;;;;;;4946849;28;20492;-56
2022/10/17 02:04:46;;;;;;;;;;;13.50;99.90;;;;;;4945373;28;20934;-56
2022/10/17 02:07:14;;;;;;;;;;;13.50;99.90;;;;;;4950406;28;19937;-56
2022/10/17 02:09:41;;;;;;;;;;;13.50;99.90;;;;;;4950752;28;19934;-56
2022/10/17 02:12:15;;;;;;;;;;;13.50;99.90;;;;;;4949681;28;19930;-56
2022/10/17 02:14:47;;;;;;;;;;;13.40;99.90;;;;;;4949986;28;19942;-56
2022/10/17 02:17:16;;;;;;;;;;;13.40;99.90;;;;;;4949929;28;19937;-56
2022/10/17 02:19:50;;;;;;;;;;;13.50;99.90;;;;;;4949452;28;20398;-56
2022/10/17 02:22:22;;;;;;;;;;;13.40;99.90;;;;;;4949693;28;19938;-56
2022/10/17 02:24:51;;;;;;;;;;;13.40;99.90;;;;;;4949945;28;19934;-58
2022/10/17 02:27:23;;;;;;;;;;;13.40;99.90;;;;;;4950050;28;20559;-58
2022/10/17 02:29:58;;;;;;;;;;;13.40;99.90;;;;;;4947028;28;19934;-57
2022/10/17 02:32:28;;;;;;;;;;;13.40;99.90;;;;;;4949066;28;19930;-57
2022/10/17 02:34:56;;;;;;;;;;;13.40;99.90;;;;;;4948553;28;21771;-58
2022/10/17 02:37:27;;;;;;;;;;;13.40;99.90;;;;;;4948441;28;19938;-58
2022/10/17 02:39:54;;;;;;;;;;;13.40;99.90;;;;;;4948616;28;19941;-57
2022/10/17 02:42:21;;;;;;;;;;;13.40;99.90;;;;;;4948556;28;19934;-58
2022/10/17 02:44:48;;;;;;;;;;;13.40;99.90;;;;;;4949824;28;20489;-58
2022/10/17 02:47:18;;;;;;;;;;;13.40;99.90;;;;;;4950287;28;20374;-58
2022/10/17 02:49:47;;;;;;;;;;;13.30;99.90;;;;;;4949247;28;19941;-58
2022/10/17 02:52:16;;;;;;;;;;;13.40;99.90;;;;;;4948531;28;19931;-57
2022/10/17 02:54:47;;;;;;;;;;;13.30;99.90;;;;;;4948128;28;19945;-57
2022/10/17 02:57:16;;;;;;;;;;;13.30;99.90;;;;;;4948692;28;19934;-57
2022/10/17 02:59:44;;;;;;;;;;;13.30;99.90;;;;;;4949081;28;20405;-57
2022/10/17 03:02:10;;;;;;;;;;;13.30;99.90;;;;;;4949200;28;19941;-57
2022/10/17 03:04:37;;;;;;;;;;;13.30;99.90;;;;;;4948760;28;19937;-57
2022/10/17 03:07:04;;;;;;;;;;;13.40;99.90;;;;;;4949640;28;20384;-58
2022/10/17 03:09:30;;;;;;;;;;;13.30;99.90;;;;;;4949890;28;20417;-57
2022/10/17 03:11:58;;;;;;;;;;;13.30;99.90;;;;;;4949687;28;19930;-57
2022/10/17 03:14:25;;;;;;;;;;;13.40;99.90;;;;;;4948911;28;19931;-57
2022/10/17 03:16:52;;;;;;;;;;;13.30;99.90;;;;;;4950064;28;19938;-57
2022/10/17 03:19:18;;;;;;;;;;;13.30;99.90;;;;;;4949217;28;20683;-57
2022/10/17 03:21:45;;;;;;;;;;;13.30;99.90;;;;;;4949234;28;19937;-57
2022/10/17 03:24:11;;;;;;;;;;;13.30;99.90;;;;;;4949803;28;19930;-57
2022/10/17 03:26:38;;;;;;;;;;;13.30;99.90;;;;;;4949999;28;19930;-57
2022/10/17 03:29:06;;;;;;;;;;;13.30;99.90;;;;;;4949373;28;19941;-57
2022/10/17 03:31:33;;;;;;;;;;;13.30;99.90;;;;;;4950139;28;20401;-57
2022/10/17 03:34:01;;;;;;;;;;;13.30;99.90;;;;;;4949468;28;19931;-57
2022/10/17 03:36:28;;;;;;;;;;;13.40;99.90;;;;;;4948721;28;19930;-57
2022/10/17 03:38:54;;;;;;;;;;;13.40;99.90;;;;;;4950025;28;19934;-58
2022/10/17 03:41:21;;;;;;;;;;;13.30;99.90;;;;;;4949185;28;19930;-57
2022/10/17 03:43:48;;;;;;;;;;;13.30;99.90;;;;;;4948747;28;19930;-57
2022/10/17 03:46:15;;;;;;;;;;;13.30;99.90;;;;;;4950574;28;19941;-58
2022/10/17 03:48:42;;;;;;;;;;;13.40;99.90;;;;;;4948867;28;20019;-58
2022/10/17 03:51:10;;;;;;;;;;;13.30;99.90;;;;;;4947891;28;20425;-57
2022/10/17 03:53:36;;;;;;;;;;;13.40;99.90;;;;;;4950118;28;19938;-57
2022/10/17 03:56:10;;;;;;;;;;;13.40;99.90;;;;;;4950385;28;20037;-57
2022/10/17 03:58:37;;;;;;;;;;;13.40;99.90;;;;;;4948732;28;19935;-57
2022/10/17 04:01:04;;;;;;;;;;;13.40;99.90;;;;;;4949014;28;20408;-57
2022/10/17 04:03:32;;;;;;;;;;;13.40;99.90;;;;;;4947977;28;19931;-57
2022/10/17 04:05:58;;;;;;;;;;;13.50;99.90;;;;;;4948051;28;20851;-58
2022/10/17 04:08:25;;;;;;;;;;;13.40;99.90;;;;;;4949423;28;19934;-57
2022/10/17 04:10:52;;;;;;;;;;;13.40;99.90;;;;;;4947836;28;19930;-58
2022/10/17 04:13:19;;;;;;;;;;;13.40;99.90;;;;;;4948388;28;19930;-58
2022/10/17 04:15:53;;;;;;;;;;;13.50;99.90;;;;;;4948885;28;19930;-57
2022/10/17 04:18:20;;;;;;;;;;;13.50;99.90;;;;;;4948174;28;19934;-57
2022/10/17 04:20:48;;;;;;;;;;;13.50;99.90;;;;;;4948598;28;19937;-57
2022/10/17 04:23:14;;;;;;;;;;;13.50;99.90;;;;;;4948225;28;19934;-57
2022/10/17 04:25:41;;;;;;;;;;;13.50;99.90;;;;;;4948458;28;21563;-57
2022/10/17 04:28:07;;;;;;;;;;;13.60;99.90;;;;;;4948479;28;20405;-57
2022/10/17 04:30:34;;;;;;;;;;;13.60;99.90;;;;;;4947169;28;19930;-58
2022/10/17 04:33:01;;;;;;;;;;;13.70;99.90;;;;;;4948037;28;20469;-57
2022/10/17 04:35:27;;;;;;;;;;;13.70;99.90;;;;;;4946270;28;19930;-57
2022/10/17 04:37:55;;;;;;;;;;;13.70;99.90;;;;;;4947644;28;19934;-57
2022/10/17 04:40:22;;;;;;;;;;;13.70;99.90;;;;;;4948091;28;19937;-57
2022/10/17 04:42:49;;;;;;;;;;;13.80;99.90;;;;;;4948635;28;20310;-58
2022/10/17 04:45:15;;;;;;;;;;;13.80;99.90;;;;;;4948091;28;19931;-57
2022/10/17 04:47:42;;;;;;;;;;;13.80;99.90;;;;;;4948442;28;19974;-57
2022/10/17 04:50:09;;;;;;;;;;;13.90;99.90;;;;;;4947491;28;20576;-58
2022/10/17 04:52:37;;;;;;;;;;;13.80;99.90;;;;;;4948247;28;19931;-57
2022/10/17 04:55:05;;;;;;;;;;;13.90;99.90;;;;;;4947195;28;20073;-58
2022/10/17 04:57:34;;;;;;;;;;;13.90;99.90;;;;;;4947543;28;19935;-57
2022/10/17 05:00:00;;;;;;;;;;;14.00;99.90;;;;;;4948783;28;19930;-57
2022/10/17 05:02:27;;;;;;;;;;;13.90;99.90;;;;;;4947156;28;19938;-58
2022/10/17 05:04:54;;;;;;;;;;;14.00;99.90;;;;;;4947453;28;19930;-57
2022/10/17 05:07:20;;;;;;;;;;;14.00;99.90;;;;;;4947184;28;20390;-58
2022/10/17 05:09:47;;;;;;;;;;;14.00;99.90;;;;;;4946686;28;20413;-58
2022/10/17 05:12:15;;;;;;;;;;;14.00;99.90;;;;;;4947429;28;19930;-58
2022/10/17 05:14:41;;;;;;;;;;;14.00;99.90;;;;;;4946730;28;19930;-58
2022/10/17 05:17:08;;;;;;;;;;;14.00;99.90;;;;;;4947231;28;20452;-57
2022/10/17 05:19:35;;;;;;;;;;;14.00;99.90;;;;;;4946963;28;19931;-58
2022/10/17 05:22:01;;;;;;;;;;;14.10;99.90;;;;;;4946960;28;19930;-58
2022/10/17 05:24:28;;;;;;;;;;;14.10;99.90;;;;;;4940912;28;20375;-58
2022/10/17 05:26:55;;;;;;;;;;;14.10;99.90;;;;;;4942527;28;19935;-58
2022/10/17 05:29:23;;;;;;;;;;;14.10;99.90;;;;;;4947491;28;19931;-58
2022/10/17 05:31:49;;;;;;;;;;;14.10;99.90;;;;;;4947369;28;19937;-58
2022/10/17 05:34:16;;;;;;;;;;;14.20;99.90;;;;;;4947561;28;19931;-58
2022/10/17 05:36:43;;;;;;;;;;;14.10;99.90;;;;;;4946100;28;19935;-58
2022/10/17 05:39:12;;;;;;;;;;;14.20;99.90;;;;;;4945987;28;19973;-58
2022/10/17 05:41:38;;;;;;;;;;;14.20;99.90;;;;;;4948847;28;19930;-58
2022/10/17 05:44:05;;;;;;;;;;;14.20;99.90;;;;;;4950133;28;19930;-58
2022/10/17 05:46:34;;;;;;;;;;;14.20;99.90;;;;;;4950673;28;19934;-58
2022/10/17 05:49:00;;;;;;;;;;;14.20;99.90;;;;;;4949532;28;20014;-58
2022/10/17 05:51:27;;;;;;;;;;;14.30;99.90;;;;;;4950556;28;20029;-58
2022/10/17 05:53:54;;;;;;;;;;;14.30;99.90;;;;;;4950233;28;19931;-58
2022/10/17 05:56:20;;;;;;;;;;;14.30;99.90;;;;;;4948636;28;19941;-58
2022/10/17 05:58:47;;;;;;;;;;;14.30;99.90;;;;;;4950418;28;19931;-58
2022/10/17 06:01:14;;;;;;;;;;;14.40;99.90;;;;;;4950550;28;22214;-58
2022/10/17 06:03:42;;;;;;;;;;;14.40;99.90;;;;;;4950144;28;19931;-58
2022/10/17 06:06:10;;;;;;;;;;;14.40;99.90;;;;;;4948118;28;19946;-58
2022/10/17 06:08:36;;;;;;;;;;;14.40;99.90;;;;;;4895612;28;19945;-58
2022/10/17 06:11:03;;;;;;;;;;;14.50;99.90;;;;;;4939197;28;20426;-58
2022/10/17 06:13:30;;;;;;;;;;;14.50;99.90;;;;;;4946771;28;19934;-58
2022/10/17 06:15:57;;;;;;;;;;;14.50;99.90;;;;;;4948682;28;19935;-56
2022/10/17 06:18:24;;;;;;;;;;;14.50;99.90;;;;;;4948257;28;20432;-58
2022/10/17 06:20:52;;;;;;;;;;;14.50;99.90;;;;;;4949351;28;20005;-58
2022/10/17 06:23:18;;;;;;;;;;;14.50;99.90;;;;;;4949022;28;19930;-58
2022/10/17 06:25:45;;;;;;;;;;;14.60;99.90;;;;;;4947668;28;19941;-58
2022/10/17 06:28:12;;;;;;;;;;;14.60;99.90;;;;;;4945168;28;20394;-58
2022/10/17 06:30:39;;;;;;;;;;;14.60;99.90;;;;;;4945424;28;19937;-58
2022/10/17 06:33:05;;;;;;;;;;;14.60;99.90;;;;;;4947003;28;19942;-58
2022/10/17 06:35:32;;;;;;;;;;;14.60;99.90;;;;;;4947784;28;20398;-57
2022/10/17 06:38:00;;;;;;;;;;;14.60;99.90;;;;;;4938644;28;20354;-58
2022/10/17 06:40:29;;;;;;;;;;;14.70;99.90;;;;;;4942175;28;19930;-58
2022/10/17 06:42:56;;;;;;;;;;;14.60;99.90;;;;;;4942148;28;20671;-58
2022/10/17 06:45:22;;;;;;;;;;;14.70;99.90;;;;;;4081628;28;10000920;-58
2022/10/17 06:47:49;;;;;;;;;;;14.70;99.90;;;;;;4948822;28;19934;-58
2022/10/17 06:50:16;;;;;;;;;;;14.70;99.90;;;;;;4959793;28;19930;-58
2022/10/17 06:52:42;;;;;;;;;;;14.70;99.90;;;;;;4960979;28;19942;-58
2022/10/17 06:55:11;;;;;;;;;;;14.70;99.90;;;;;;4959772;28;19937;-58
2022/10/17 06:57:39;;;;;;;;;;;14.70;99.90;;;;;;4961448;28;19952;-57
2022/10/17 07:00:07;;;;;;;;;;;14.70;99.90;;;;;;4961200;28;19934;-58
2022/10/17 07:02:34;;;;;;;;;;;14.70;99.90;;;;;;4962303;28;20011;-58
2022/10/17 07:05:00;;;;;;;;;;;14.80;99.90;;;;;;4950496;28;19941;-58
2022/10/17 07:07:30;;;;;;;;;;;14.70;99.90;;;;;;4958631;28;19930;-60
2022/10/17 07:09:56;;;;;;;;;;;14.80;99.90;;;;;;4957765;28;19934;-61
2022/10/17 07:12:24;;;;;;;;;;;14.80;99.90;;;;;;4960243;28;19989;-61
2022/10/17 07:14:51;;;;;;;;;;;14.80;99.90;;;;;;4959900;28;19930;-58
2022/10/17 07:17:18;;;;;;;;;;;14.80;99.90;;;;;;4960903;28;19930;-58
2022/10/17 07:19:45;;;;;;;;;;;14.90;99.90;;;;;;4079183;28;10001864;-58
2022/10/17 07:22:12;;;;;;;;;;;14.90;99.90;;;;;;4959849;28;19934;-58
2022/10/17 07:24:38;;;;;;;;;;;14.90;99.90;;;;;;4960321;28;19934;-58
2022/10/17 07:27:05;;;;;;;;;;;14.90;99.90;;;;;;4960564;28;19973;-58
2022/10/17 07:29:33;;;;;;;;;;;15.00;99.90;;;;;;4960724;28;19968;-58
2022/10/17 07:32:00;;;;;;;;;;;15.00;99.90;;;;;;4960515;28;20381;-58
2022/10/17 07:34:29;;;;;;;;;;;15.00;99.90;;;;;;4958771;28;19990;-58
2022/10/17 07:36:56;;;;;;;;;;;15.10;99.90;;;;;;4959869;28;19930;-57
2022/10/17 07:39:22;;;;;;;;;;;15.10;99.90;;;;;;4954391;28;19930;-58
2022/10/17 07:41:49;;;;;;;;;;;15.10;99.90;;;;;;4957857;28;19930;-58
2022/10/17 07:44:16;;;;;;;;;;;15.20;99.90;;;;;;4956729;28;19969;-58
2022/10/17 07:46:44;;;;;;;;;;;15.20;99.90;;;;;;4958856;28;19930;-58
2022/10/17 07:49:11;;;;;;;;;;;15.30;99.90;;;;;;4951954;28;19936;-58
2022/10/17 07:51:38;;;;;;;;;;;15.30;99.90;;;;;;4956958;28;19930;-61
2022/10/17 07:56:38;;;;;;;;;;;15.40;99.90;;;;;;4993559;28;19930;-62
2022/10/17 07:59:04;;;;;;;;;;;15.30;99.90;;;;;;4998680;28;20637;-61
2022/10/17 08:01:31;;;;;;;;;;;15.40;99.90;;;;;;5344860;23;19930;-57
2022/10/17 08:03:59;;;;;;;;;;;15.40;99.90;;;;;;4993203;28;19934;-57
2022/10/17 08:06:26;;;;;;;;;;;15.50;99.90;;;;;;4993818;28;21552;-57
2022/10/17 08:08:57;;;;;;;;;;;15.60;99.90;;;;;;4994027;28;19937;-57
2022/10/17 08:11:24;;;;;;;;;;;15.70;99.90;;;;;;5000963;28;19930;-58
2022/10/17 08:13:51;;;;;;;;;;;15.80;99.90;;;;;;5003220;28;19934;-57
2022/10/17 08:16:17;;;;;;;;;;;15.80;99.90;;;;;;4998439;28;19940;-57
2022/10/17 08:18:44;;;;;;;;;;;15.90;99.90;;;;;;5001135;28;19940;-57
2022/10/17 08:21:13;;;;;;;;;;;15.90;99.90;;;;;;4991521;28;20393;-58
2022/10/17 08:23:40;;;;;;;;;;;15.90;99.90;;;;;;4996245;28;20348;-58
2022/10/17 08:26:09;;;;;;;;;;;16.00;99.90;;;;;;4998490;28;20075;-57
2022/10/17 08:28:36;;;;;;;;;;;15.90;99.90;;;;;;4997395;28;19936;-57
2022/10/17 08:31:03;;;;;;;;;;;16.00;99.90;;;;;;4998855;28;19972;-58
2022/10/17 08:33:33;;;;;;;;;;;16.00;99.90;;;;;;4996030;28;20774;-58
2022/10/17 08:36:00;;;;;;;;;;;16.00;99.90;;;;;;4997286;28;19929;-58
2022/10/17 08:38:28;;;;;;;;;;;16.10;99.90;;;;;;4993358;28;19990;-57
2022/10/17 08:40:57;;;;;;;;;;;16.10;99.90;;;;;;4997955;28;19929;-58
2022/10/17 08:43:28;;;;;;;;;;;16.10;99.90;;;;;;4998453;28;19933;-58
2022/10/17 08:45:59;;;;;;;;;;;16.20;99.90;;;;;;4996018;28;19933;-57
2022/10/17 08:48:28;;;;;;;;;;;16.20;99.90;;;;;;4997813;28;19937;-57
2022/10/17 08:50:56;;;;;;;;;;;16.20;99.90;;;;;;4995876;28;19929;-58
2022/10/17 08:53:25;;;;;;;;;;;16.20;99.90;;;;;;4997471;28;19941;-58
2022/10/17 08:55:54;;;;;;;;;;;16.20;99.90;;;;;;4996381;28;20098;-58
2022/10/17 08:58:22;;;;;;;;;;;16.30;99.90;;;;;;4998789;28;20944;-57
2022/10/17 09:00:53;;;;;;;;;;;16.40;99.90;;;;;;5000450;28;19971;-58
2022/10/17 09:03:28;;;;;;;;;;;16.40;99.90;;;;;;5005633;28;20403;-58
2022/10/17 09:06:02;;;;;;;;;;;16.40;99.90;;;;;;5004748;28;19992;-57
2022/10/17 09:08:38;;;;;;;;;;;16.40;99.90;;;;;;5004130;28;20523;-58
2022/10/17 09:11:11;;;;;;;;;;;16.40;99.90;;;;;;5005250;28;20901;-57
2022/10/17 09:13:44;;;;;;;;;;;16.40;99.90;;;;;;5004932;28;20636;-57
2022/10/17 09:16:24;;;;;;;;;;;16.40;99.90;;;;;;5004417;28;19937;-58
2022/10/17 09:18:57;;;;;;;;;;;16.40;99.90;;;;;;5004322;28;19929;-58
2022/10/17 09:21:27;;;;;;;;;;;16.50;99.90;;;;;;5005110;28;19929;-57
2022/10/17 09:23:56;;;;;;;;;;;16.50;99.90;;;;;;5005252;28;21704;-57
2022/10/17 09:26:24;;;;;;;;;;;16.50;99.90;;;;;;5003547;28;20091;-58
2022/10/17 09:28:52;;;;;;;;;;;16.50;99.90;;;;;;5005091;28;19938;-57
2022/10/17 09:31:21;;;;;;;;;;;16.50;99.90;;;;;;5003875;28;19933;-57
2022/10/17 09:33:49;;;;;;;;;;;16.50;99.90;;;;;;5003374;28;19939;-57
2022/10/17 09:36:17;;;;;;;;;;;16.50;99.90;;;;;;5005182;28;20388;-57
2022/10/17 09:38:45;;;;;;;;;;;16.50;99.90;;;;;;5005532;28;19951;-57
2022/10/17 09:41:20;;;;;;;;;;;16.50;99.90;;;;;;5006197;28;19937;-57
2022/10/17 09:43:48;;;;;;;;;;;16.50;99.90;;;;;;5004532;28;19940;-57
2022/10/17 09:46:17;;;;;;;;;;;16.50;99.90;;;;;;5005283;28;19956;-57
2022/10/17 09:48:46;;;;;;;;;;;16.50;99.90;;;;;;5005805;28;19930;-57
2022/10/17 09:51:13;;;;;;;;;;;16.50;99.90;;;;;;5003592;28;20516;-57
2022/10/17 09:53:40;;;;;;;;;;;16.50;99.90;;;;;;5001431;28;20399;-57
2022/10/17 09:56:08;;;;;;;;;;;16.50;99.90;;;;;;5003277;28;21916;-57
2022/10/17 09:58:42;;;;;;;;;;;16.40;99.90;;;;;;5004881;28;20355;-57
2022/10/17 10:01:18;;;;;;;;;;;16.50;99.90;;;;;;5004285;28;19929;-57
2022/10/17 10:03:44;;;;;;;;;;;16.50;99.90;;;;;;5002890;28;20333;-57
2022/10/17 10:06:13;;;;;;;;;;;16.40;99.90;;;;;;5003974;28;20399;-57
2022/10/17 10:08:48;;;;;;;;;;;16.40;99.90;;;;;;5004225;28;19929;-57
2022/10/17 10:11:16;;;;;;;;;;;16.40;99.90;;;;;;5004597;28;20384;-57
2022/10/17 10:13:43;;;;;;;;;;;16.40;99.90;;;;;;5005004;28;19934;-57
2022/10/17 10:16:15;;;;;;;;;;;16.30;99.90;;;;;;5005052;28;19937;-57
2022/10/17 10:18:43;;;;;;;;;;;16.30;99.90;;;;;;5003936;28;19934;-57
2022/10/17 10:21:11;;;;;;;;;;;16.30;99.90;;;;;;5005220;28;19933;-57
2022/10/17 10:23:39;;;;;;;;;;;16.30;99.90;;;;;;5003961;28;19945;-57
2022/10/17 10:26:11;;;;;;;;;;;16.30;99.90;;;;;;5004613;28;19929;-57
2022/10/17 10:28:37;;;;;;;;;;;16.30;99.90;;;;;;5006669;28;19930;-57
2022/10/17 10:31:06;;;;;;;;;;;16.30;99.90;;;;;;5007494;28;19930;-57
2022/10/17 10:33:34;;;;;;;;;;;16.20;99.90;;;;;;5007729;28;19939;-57
2022/10/17 10:36:03;;;;;;;;;;;16.20;99.90;;;;;;5006722;28;19929;-56
2022/10/17 10:38:31;;;;;;;;;;;16.20;99.90;;;;;;5008114;28;19936;-57
2022/10/17 10:41:02;;;;;;;;;;;16.20;99.90;;;;;;5007377;28;20882;-57
2022/10/17 10:43:32;;;;;;;;;;;16.20;99.90;;;;;;5005974;28;19934;-57
2022/10/17 10:45:59;;;;;;;;;;;16.20;99.90;;;;;;5004644;28;19971;-57
2022/10/17 10:48:26;;;;;;;;;;;16.20;99.90;;;;;;5005025;28;20228;-57
2022/10/17 10:50:56;;;;;;;;;;;16.20;99.90;;;;;;5007800;28;19936;-57
2022/10/17 10:53:29;;;;;;;;;;;16.30;99.90;;;;;;5007331;28;20524;-57
2022/10/17 10:55:58;;;;;;;;;;;16.20;99.90;;;;;;5007557;28;19929;-57
2022/10/17 10:58:31;;;;;;;;;;;16.20;99.90;;;;;;5007412;28;19980;-57
2022/10/17 11:01:00;;;;;;;;;;;16.20;99.90;;;;;;5007603;28;19929;-57
2022/10/17 11:03:30;;;;;;;;;;;16.20;99.90;;;;;;5006235;28;19934;-57
2022/10/17 11:06:00;;;;;;;;;;;16.20;99.90;;;;;;5006255;28;20415;-57
2022/10/17 11:08:30;;;;;;;;;;;16.30;99.90;;;;;;5006677;28;19929;-57
2022/10/17 11:11:00;;;;;;;;;;;16.30;99.90;;;;;;5006350;28;19930;-57
2022/10/17 11:13:30;;;;;;;;;;;16.30;99.90;;;;;;5008160;28;22385;-57
2022/10/17 11:15:59;;;;;;;;;;;16.30;99.90;;;;;;5006215;28;19929;-57
2022/10/17 11:18:28;;;;;;;;;;;16.30;99.90;;;;;;5007250;28;19930;-58
2022/10/17 11:20:57;;;;;;;;;;;16.40;99.90;;;;;;5006064;28;19929;-57
2022/10/17 11:23:27;;;;;;;;;;;16.40;99.90;;;;;;5006981;28;19933;-57
2022/10/17 11:25:57;;;;;;;;;;;16.40;99.90;;;;;;5005002;28;20028;-57
2022/10/17 11:28:24;;;;;;;;;;;16.40;99.90;;;;;;5007012;28;19936;-57
2022/10/17 11:30:54;;;;;;;;;;;16.40;99.90;;;;;;5005679;28;19936;-57
2022/10/17 11:33:25;;;;;;;;;;;16.40;99.90;;;;;;5006836;28;19965;-57
2022/10/17 11:35:54;;;;;;;;;;;16.40;99.90;;;;;;5005214;28;19929;-57
2022/10/17 11:38:22;;;;;;;;;;;16.40;99.90;;;;;;5006560;28;20928;-57
2022/10/17 11:40:50;;;;;;;;;;;16.40;99.90;;;;;;5005801;28;20771;-57
2022/10/17 11:43:20;;;;;;;;;;;16.40;99.90;;;;;;5006539;28;20699;-57
2022/10/17 11:45:48;;;;;;;;;;;16.40;99.90;;;;;;5005876;28;19929;-57
2022/10/17 11:48:18;;;;;;;;;;;16.40;99.90;;;;;;5006693;28;19929;-57
2022/10/17 11:50:47;;;;;;;;;;;16.40;99.90;;;;;;5005165;28;19929;-57
2022/10/17 11:53:14;;;;;;;;;;;16.40;99.90;;;;;;5003986;28;19933;-57
2022/10/17 11:55:41;;;;;;;;;;;16.40;99.90;;;;;;5003859;28;19929;-57
2022/10/17 11:58:26;;;;;;;;;;;16.40;99.90;;;;;;5006260;28;20311;-57
2022/10/17 12:00:58;;;;;;;;;;;16.40;99.90;;;;;;5004125;28;19936;-57
2022/10/17 12:03:32;;;;;;;;;;;16.40;99.90;;;;;;5004908;28;19939;-58
2022/10/17 12:06:02;;;;;;;;;;;16.40;99.90;;;;;;5003627;28;19929;-57
2022/10/17 12:08:33;;;;;;;;;;;16.40;99.90;;;;;;5005529;28;19929;-57
2022/10/17 12:11:03;;;;;;;;;;;16.40;99.90;;;;;;5004210;28;20494;-57
2022/10/17 12:13:50;;;;;;;;;;;16.40;99.90;;;;;;5005605;28;19921;-57
2022/10/17 12:16:32;;;;;;;;;;;16.40;99.90;;;;;;5006838;28;20463;-57
2022/10/17 12:19:13;;;;;;;;;;;16.40;99.90;;;;;;5003104;28;20399;-58
2022/10/17 12:21:54;;;;;;;;;;;16.40;99.90;;;;;;5006515;28;19929;-57
2022/10/17 12:24:27;;;;;;;;;;;16.40;99.90;;;;;;5006087;28;19937;-58
2022/10/17 12:26:54;;;;;;;;;;;16.40;99.90;;;;;;5004105;28;22124;-57
2022/10/17 12:29:25;;;;;;;;;;;16.50;99.90;;;;;;5006909;28;20417;-57
2022/10/17 12:31:52;;;;;;;;;;;16.50;99.90;;;;;;5005284;28;19943;-58
2022/10/17 12:34:22;;;;;;;;;;;16.50;99.90;;;;;;5006255;28;19933;-57
2022/10/17 12:36:49;;;;;;;;;;;16.50;99.90;;;;;;5004225;28;19929;-58
2022/10/17 12:39:36;;;;;;;;;;;16.50;99.90;;;;;;5006364;28;20018;-58
2022/10/17 12:42:26;;;;;;;;;;;16.50;99.90;;;;;;4997608;28;20542;-57
2022/10/17 12:44:54;;;;;;;;;;;16.50;99.90;;;;;;5006146;28;19933;-58
2022/10/17 12:47:28;;;;;;;;;;;16.50;99.90;;;;;;5005106;28;19930;-57
2022/10/17 12:49:55;;;;;;;;;;;16.50;99.90;;;;;;5005003;28;20360;-58
2022/10/17 12:52:26;;;;;;;;;;;16.50;99.90;;;;;;5005529;28;20449;-58
2022/10/17 12:54:56;;;;;;;;;;;16.50;99.90;;;;;;5006587;28;19988;-57
2022/10/17 12:57:25;;;;;;;;;;;16.50;99.90;;;;;;5003700;28;19929;-57
2022/10/17 12:59:52;;;;;;;;;;;16.40;99.90;;;;;;5006167;28;19930;-57
2022/10/17 13:02:23;;;;;;;;;;;16.40;99.90;;;;;;5004802;28;20401;-58
2022/10/17 13:04:50;;;;;;;;;;;16.40;99.90;;;;;;5006274;28;20504;-57
2022/10/17 13:07:19;;;;;;;;;;;16.40;99.90;;;;;;5004555;28;19929;-58
2022/10/17 13:09:46;;;;;;;;;;;16.40;99.90;;;;;;5005957;28;20108;-57
2022/10/17 13:12:14;;;;;;;;;;;16.30;99.90;;;;;;5005939;28;20408;-58
2022/10/17 13:14:43;;;;;;;;;;;16.30;99.90;;;;;;5005074;28;21697;-57
2022/10/17 13:17:21;;;;;;;;;;;16.30;99.90;;;;;;5004610;28;20042;-57
2022/10/17 13:19:49;;;;;;;;;;;16.30;99.90;;;;;;5004819;28;20107;-57
2022/10/17 13:22:17;;;;;;;;;;;16.30;99.90;;;;;;5006175;28;20067;-57
2022/10/17 13:24:43;;;;;;;;;;;16.20;99.90;;;;;;5005236;28;19968;-58
2022/10/17 13:27:22;;;;;;;;;;;16.20;99.90;;;;;;5003742;28;19929;-58
2022/10/17 13:29:49;;;;;;;;;;;16.20;99.90;;;;;;5003261;28;20099;-58
2022/10/17 13:32:16;;;;;;;;;;;16.20;99.90;;;;;;5003879;28;19930;-58
2022/10/17 13:34:43;;;;;;;;;;;16.20;99.90;;;;;;5004550;28;19933;-58
2022/10/17 13:37:13;;;;;;;;;;;16.20;99.90;;;;;;5004037;28;20517;-58
2022/10/17 13:39:41;;;;;;;;;;;16.20;99.90;;;;;;5003989;28;19929;-58
2022/10/17 13:42:22;;;;;;;;;;;16.20;99.90;;;;;;5005394;28;20024;-57
2022/10/17 13:44:49;;;;;;;;;;;16.10;99.90;;;;;;5004821;28;19941;-58
2022/10/17 13:47:23;;;;;;;;;;;16.10;99.90;;;;;;5004706;28;21840;-57
2022/10/17 13:49:50;;;;;;;;;;;16.10;99.90;;;;;;5002471;28;20482;-57
2022/10/17 13:52:19;;;;;;;;;;;16.10;99.90;;;;;;5005125;28;20392;-57
2022/10/17 13:54:47;;;;;;;;;;;16.10;99.90;;;;;;5003689;28;19938;-57
2022/10/17 13:57:20;;;;;;;;;;;16.10;99.90;;;;;;5003139;28;20022;-57
2022/10/17 13:59:49;;;;;;;;;;;16.00;99.90;;;;;;5003544;28;20707;-57
2022/10/17 14:02:16;;;;;;;;;;;16.00;99.90;;;;;;5005406;28;19930;-57
2022/10/17 14:04:43;;;;;;;;;;;16.00;99.90;;;;;;5008988;28;19939;-57
2022/10/17 14:07:21;;;;;;;;;;;16.00;99.90;;;;;;5008051;28;19936;-57
2022/10/17 14:09:47;;;;;;;;;;;16.00;99.90;;;;;;5007747;28;19930;-57
2022/10/17 14:12:15;;;;;;;;;;;16.00;99.90;;;;;;5007090;28;20474;-57
2022/10/17 14:14:47;;;;;;;;;;;16.00;99.90;;;;;;5007990;28;20216;-57
2022/10/17 14:17:14;;;;;;;;;;;16.00;99.90;;;;;;5008178;28;19929;-57
2022/10/17 14:19:41;;;;;;;;;;;15.90;99.90;;;;;;5007945;28;20320;-57
2022/10/17 14:22:16;;;;;;;;;;;15.90;99.90;;;;;;5008208;28;19936;-57
2022/10/17 14:24:44;;;;;;;;;;;15.90;99.90;;;;;;5008349;28;20043;-57
2022/10/17 14:27:28;;;;;;;;;;;15.90;99.90;;;;;;5008131;28;19980;-57